Terminal Aerodrome Forecast
Issued by NWS

Home | Current Version | Previous Version | Text Only | Print | Product List | Glossary On
Versions: 1 2 3 4 5 6 7 8 9 10 11 12 13 14 15 16 17 18 19 20 21 22 23 24 25 26 27 28 29 30
000
FTUS41 KBOX 262335
TAFHYA
TAF
KHYA 262335Z 2700/2724 22015KT P6SM BKN250
     FM270700 23011KT 3SM BR BKN050 WS020/24040KT
     FM271000 22012KT 2SM BR BKN025
     FM271200 21015KT 3SM BR BKN001
     FM271300 21015KT 3SM BR BKN015
     FM271500 21014KT 3SM BR BKN001
     FM271800 22016KT 5SM BR BKN020
     FM272100 22016KT P6SM BKN250=

USA.gov is the U.S. government's official web portal to all federal, state and local government web resources and services.